Paxtonia, Pennsylvania
Current Conditions -  °F | °C
As of 4:56 AM on Tuesday 27 Jan 2015 (Local Time) from KCXY Reporting Station
Light Snow Light Snow  
Wind Chill: 19°   Ceiling: 4800
Heat Index: 27°   Visibility: 8mi
Dew Point: 20°   Wind: 8mph
Humidity: 75%   Direction: 320°NW
Pressure: 29.76"   Gusts: NA
Location:  40.3615°N, 76.7974°W
Report Text: KCXY 270956Z AUTO 32007KT 8SM -SN SCT038 BKN048 OVC055 M03/M07 A2976 RMK AO2 SLP083 P0000 T10281067
Loading
Personal Weather Stations






























Interactive Weather Map New forecast layout! Learn more

10-Day Weather Forecast

Advertisements
Track Severe Weather on mobile